Yutai Ambitions — VREK5 — position and weather

sailwx.info

Track history (hours):
 
Tides and Currents Weather Stations Pressure Air Temp Water Temp Dewpoint Dewpoint Depression Visibility Wind Speed Wind Dir Waves Ship Positions

Yutai Ambitions

Last reported at 2017-Sep-12 21:41 UTC. Time now 2017-Sep-23 07:43 UTC.
Position N 60°35' E 019°04'.
Warning: this ship's position is 10 days out of date.

Length 225 m; draft 7 m.

Type: Ship. MMSI: 477136300.

Date/timePositionNaut miles runAvg speedWind from/ knotsBaromVisibWave heightAir tempDewpointWater temp
2017-Sep-12 21:41N 60°35' E 019°04'313.3
2017-Sep-12 21:29N 60°32' E 019°03'713.2
2017-Sep-12 20:59N 60°26' E 019°02'713.2
2017-Sep-12 20:29N 60°19' E 019°01'612.7
2017-Sep-12 20:00N 60°13' E 019°02'713.0
2017-Sep-12 19:30N 60°08' E 019°10'713.0
2017-Sep-12 19:00N 60°03' E 019°19'713.1
2017-Sep-12 18:30N 59°59' E 019°29'613.0
2017-Sep-12 18:00N 59°54' E 019°37'713.0
2017-Sep-12 17:30N 59°48' E 019°43'1112.4
2017-Sep-12 16:39N 59°39' E 019°55'22812.5
2017-Sep-11 22:22N 56°10' E 017°03'513.3
2017-Sep-11 22:00N 56°07' E 016°56'713.2
2017-Sep-11 21:31N 56°04' E 016°46'713.2
2017-Sep-11 21:00N 55°60' E 016°36'713.1
2017-Sep-11 20:31N 55°56' E 016°26'713.0
2017-Sep-11 20:01N 55°52' E 016°17'612.8
2017-Sep-11 19:30N 55°49' E 016°07'612.7
2017-Sep-11 19:01N 55°45' E 015°58'612.9
2017-Sep-11 18:31N 55°42' E 015°49'713.1
2017-Sep-11 18:01N 55°39' E 015°38'713.1
2017-Sep-11 17:31N 55°37' E 015°27'713.1
2017-Sep-11 17:00N 55°34' E 015°17'713.1
2017-Sep-11 16:30N 55°31' E 015°06'713.3
2017-Sep-11 16:00N 55°29' E 014°55'713.4
2017-Sep-11 15:30N 55°26' E 014°44'713.5
2017-Sep-11 15:00N 55°21' E 014°36'713.2
2017-Sep-11 14:30N 55°16' E 014°28'612.8
2017-Sep-11 14:00N 55°12' E 014°20'713.1
2017-Sep-11 13:30N 55°10' E 014°09'713.2
2017-Sep-11 13:00N 55°11' E 013°58'612.9
2017-Sep-11 12:30N 55°11' E 013°46'612.8
2017-Sep-11 12:00N 55°11' E 013°35'612.9
2017-Sep-11 11:30N 55°12' E 013°24'612.9
2017-Sep-11 11:01N 55°13' E 013°13'713.1
2017-Sep-11 10:30N 55°14' E 013°01'612.8
2017-Sep-11 10:00N 55°15' E 012°50'612.7
2017-Sep-11 09:31N 55°17' E 012°40'5 9.2
2017-Sep-11 09:00N 55°22' E 012°39'611.6
2017-Sep-11 08:31N 55°27' E 012°41'4 8.2
2017-Sep-11 08:01N 55°31' E 012°44'5 9.0
2017-Sep-11 07:30N 55°34' E 012°49'5 9.5
2017-Sep-11 07:01N 55°38' E 012°55'5 9.7
2017-Sep-11 06:31N 55°43' E 012°53'611.4
2017-Sep-11 06:00N 55°48' E 012°48'510.9
2017-Sep-11 05:31N 55°53' E 012°44'611.2
2017-Sep-11 05:00N 55°58' E 012°42'510.6
2017-Sep-11 04:31N 56°03' E 012°38'5 9.1
2017-Sep-11 04:01N 56°06' E 012°33'5 9.1
2017-Sep-11 03:30N 56°09' E 012°26'611.3
2017-Sep-11 03:01N 56°12' E 012°18'612.1
2017-Sep-11 02:31N 56°15' E 012°08'4711.2
2017-Sep-10 22:18N 57°00' E 011°43'511.9
2017-Sep-10 21:53N 57°05' E 011°39'511.6
2017-Sep-10 21:28N 57°09' E 011°37'511.5
2017-Sep-10 21:00N 57°14' E 011°33'611.5
2017-Sep-10 20:30N 57°20' E 011°30'611.7
2017-Sep-10 20:00N 57°25' E 011°27'611.6
2017-Sep-10 19:31N 57°30' E 011°21'612.6
2017-Sep-10 19:01N 57°34' E 011°11'713.1
2017-Sep-10 18:30N 57°36' E 010°59'613.1
2017-Sep-10 18:01N 57°38' E 010°48'4 8.1
2017-Sep-10 17:30N 57°39' E 010°41'0 0.1
2017-Sep-10 16:37N 57°40' E 010°40'0 0.0
2017-Sep-10 16:13N 57°40' E 010°41'0 0.0
2017-Sep-10 15:49N 57°40' E 010°41'0 0.0
2017-Sep-10 15:28N 57°40' E 010°41'0 0.0
2017-Sep-10 15:00N 57°40' E 010°41'0 0.0
2017-Sep-10 13:57N 57°40' E 010°41'0 0.4
2017-Sep-10 13:30N 57°40' E 010°40'2 3.9
2017-Sep-10 13:00N 57°41' E 010°42'4 8.3
2017-Sep-10 12:30N 57°44' E 010°48'4 7.4
2017-Sep-10 11:59N 57°48' E 010°47'714.5
2017-Sep-10 11:30N 57°49' E 010°34'714.4
2017-Sep-10 11:00N 57°48' E 010°21'37412.9
2017-Sep-09 06:07N 52°59' E 003°24'214.1
2017-Sep-09 06:00N 52°58' E 003°23'714.2
2017-Sep-09 05:29N 52°51' E 003°17'714.3
2017-Sep-09 04:59N 52°45' E 003°11'714.5
2017-Sep-09 04:30N 52°39' E 003°06'714.7
2017-Sep-09 03:59N 52°32' E 002°60'714.6
2017-Sep-09 03:29N 52°26' E 002°54'714.5
2017-Sep-09 03:00N 52°20' E 002°48'714.3
2017-Sep-09 02:29N 52°13' E 002°43'713.9
2017-Sep-09 02:00N 52°07' E 002°40'713.5
2017-Sep-09 01:29N 51°60' E 002°37'912.6
2017-Sep-09 00:45N 51°51' E 002°37'312.4
2017-Sep-09 00:30N 51°47' E 002°37'611.7
2017-Sep-09 00:00N 51°42' E 002°41'510.8
2017-Sep-08 23:30N 51°37' E 002°44'610.9
2017-Sep-08 23:00N 51°32' E 002°42'4 9.0
2017-Sep-08 22:30N 51°27' E 002°42'3 5.8
2017-Sep-08 21:59N 51°24' E 002°39'0 0.1
2017-Sep-08 21:29N 51°25' E 002°39'0 0.1
2017-Sep-08 20:59N 51°25' E 002°39'0 0.1
2017-Sep-08 20:29N 51°25' E 002°39'0 0.1
2017-Sep-08 19:59N 51°25' E 002°39'0 0.1
2017-Sep-08 19:29N 51°25' E 002°39'0 0.1
2017-Sep-08 18:59N 51°25' E 002°39'0 0.1
2017-Sep-08 18:29N 51°25' E 002°39'0 0.0
2017-Sep-08 17:59N 51°25' E 002°39'0 0.0
2017-Sep-08 17:29N 51°25' E 002°39'0 0.0
2017-Sep-08 16:59N 51°25' E 002°39'0 0.0
2017-Sep-08 16:29N 51°25' E 002°39'0 0.1
2017-Sep-08 15:59N 51°25' E 002°39'0 0.1
2017-Sep-08 15:29N 51°25' E 002°39'0 0.1
2017-Sep-08 14:59N 51°25' E 002°39'0 0.0
2017-Sep-08 14:29N 51°25' E 002°39'0 0.2
2017-Sep-08 13:59N 51°25' E 002°39'0 0.1
2017-Sep-08 13:29N 51°25' E 002°39'0 0.1
2017-Sep-08 12:59N 51°25' E 002°39'0 0.0
2017-Sep-08 12:29N 51°25' E 002°39'0 0.1
2017-Sep-08 11:59N 51°25' E 002°39'0 0.0
2017-Sep-08 11:29N 51°25' E 002°39'0 0.1
2017-Sep-08 10:59N 51°25' E 002°39'0 0.0
2017-Sep-08 10:29N 51°25' E 002°39'0 0.0
2017-Sep-08 09:59N 51°25' E 002°39'0 0.0
2017-Sep-08 09:29N 51°25' E 002°39'0 0.0
2017-Sep-08 08:59N 51°25' E 002°39'0 0.0
2017-Sep-08 08:29N 51°25' E 002°39'0 0.0
2017-Sep-08 07:59N 51°25' E 002°39'0 0.1
2017-Sep-08 07:29N 51°25' E 002°39'0 0.1
2017-Sep-08 06:59N 51°25' E 002°39'0 0.1
2017-Sep-08 06:29N 51°25' E 002°39'0 0.1
2017-Sep-08 05:59N 51°25' E 002°39'0 0.0
2017-Sep-08 05:29N 51°25' E 002°39'0 0.1
2017-Sep-08 04:59N 51°25' E 002°39'0 0.0
2017-Sep-08 04:29N 51°25' E 002°39'0 0.0
2017-Sep-08 03:59N 51°25' E 002°39'0 0.1
2017-Sep-08 03:29N 51°25' E 002°39'0 0.0
2017-Sep-08 02:59N 51°25' E 002°39'0 0.1
2017-Sep-08 02:29N 51°25' E 002°39'0 0.2
2017-Sep-08 01:59N 51°25' E 002°39'0 0.1
2017-Sep-08 01:29N 51°25' E 002°39'0 0.1
2017-Sep-08 00:59N 51°25' E 002°39'0 0.1
2017-Sep-08 00:29N 51°25' E 002°39'0 0.1
2017-Sep-07 23:59N 51°25' E 002°39'0 0.0
2017-Sep-07 23:26N 51°25' E 002°39'0 0.0
2017-Sep-07 22:59N 51°25' E 002°39'0 0.0
2017-Sep-07 22:29N 51°25' E 002°39'0 0.0
2017-Sep-07 21:59N 51°25' E 002°39'0 0.0
2017-Sep-07 21:29N 51°25' E 002°39'0 0.0
2017-Sep-07 20:59N 51°25' E 002°39'0 0.0
2017-Sep-07 20:29N 51°25' E 002°39'0 0.1
2017-Sep-07 19:59N 51°25' E 002°39'0 0.0
2017-Sep-07 19:29N 51°25' E 002°39'0 0.1
2017-Sep-07 18:59N 51°25' E 002°39'0 0.0
2017-Sep-07 18:29N 51°25' E 002°39'0 0.1
2017-Sep-07 17:59N 51°25' E 002°39'0 0.2
2017-Sep-07 17:29N 51°25' E 002°39'0 0.2
2017-Sep-07 16:59N 51°25' E 002°39'0 0.2
2017-Sep-07 16:29N 51°25' E 002°39'0 0.1
2017-Sep-07 15:59N 51°25' E 002°39'0 0.0
2017-Sep-07 15:29N 51°25' E 002°39'0 0.0
2017-Sep-07 14:59N 51°25' E 002°39'0 0.0
2017-Sep-07 14:29N 51°25' E 002°39'0 0.0
2017-Sep-07 13:59N 51°25' E 002°39'0 0.1
2017-Sep-07 13:29N 51°25' E 002°39'0 0.0
2017-Sep-07 12:59N 51°25' E 002°39'0 0.0
2017-Sep-07 12:29N 51°25' E 002°39'0 0.0
2017-Sep-07 11:59N 51°25' E 002°39'0 0.1
2017-Sep-07 11:29N 51°25' E 002°39'0 0.1
2017-Sep-07 10:59N 51°24' E 002°39'0 0.2
2017-Sep-07 10:29N 51°24' E 002°39'0 0.2
2017-Sep-07 09:59N 51°24' E 002°39'0 0.0
2017-Sep-07 09:29N 51°24' E 002°39'0 0.0
2017-Sep-07 08:59N 51°24' E 002°39'0 0.0
2017-Sep-07 08:29N 51°24' E 002°39'0 0.0
2017-Sep-07 07:59N 51°24' E 002°39'0 0.0
2017-Sep-07 07:29N 51°24' E 002°39'0 0.0
2017-Sep-07 06:59N 51°24' E 002°39'0 0.1
2017-Sep-07 06:29N 51°24' E 002°39'0 0.2
2017-Sep-07 05:59N 51°24' E 002°39'0 0.3
2017-Sep-07 05:29N 51°25' E 002°39'0 0.1
2017-Sep-07 04:59N 51°25' E 002°39'0 0.1
2017-Sep-07 04:29N 51°25' E 002°39'0 0.0
2017-Sep-07 03:59N 51°25' E 002°39'0 0.0
2017-Sep-07 03:29N 51°25' E 002°39'0 0.0
2017-Sep-07 02:59N 51°25' E 002°39'0 0.0
2017-Sep-07 02:26N 51°25' E 002°39'0 0.0
2017-Sep-07 01:59N 51°25' E 002°39'0 0.1
2017-Sep-07 01:29N 51°25' E 002°39'0 0.0
2017-Sep-07 00:59N 51°25' E 002°39'0 0.0
2017-Sep-07 00:29N 51°25' E 002°39'0 0.0
2017-Sep-06 23:59N 51°25' E 002°39'0 0.1
2017-Sep-06 23:29N 51°25' E 002°39'0 0.1
2017-Sep-06 22:59N 51°24' E 002°39'0 0.1
2017-Sep-06 22:29N 51°24' E 002°39'0 0.1
2017-Sep-06 21:59N 51°24' E 002°39'0 0.0
2017-Sep-06 21:29N 51°24' E 002°39'0 0.0
2017-Sep-06 20:59N 51°24' E 002°39'0 0.0
2017-Sep-06 20:29N 51°24' E 002°39'0 0.0
2017-Sep-06 19:59N 51°24' E 002°39'0 0.0
2017-Sep-06 19:29N 51°24' E 002°39'0 0.1
2017-Sep-06 18:59N 51°24' E 002°39'0 0.1
2017-Sep-06 18:29N 51°24' E 002°39'0 0.1
2017-Sep-06 17:59N 51°24' E 002°39'0 0.0
2017-Sep-06 17:29N 51°24' E 002°39'0 0.0
2017-Sep-06 16:59N 51°24' E 002°39'0 0.1
2017-Sep-06 16:29N 51°25' E 002°39'0 0.1
2017-Sep-06 15:59N 51°25' E 002°39'0 0.0
2017-Sep-06 15:29N 51°25' E 002°39'0 0.0
2017-Sep-06 14:56N 51°25' E 002°39'0 0.0
2017-Sep-06 14:29N 51°25' E 002°39'0 0.0
2017-Sep-06 13:59N 51°25' E 002°39'0 0.0
2017-Sep-06 13:29N 51°25' E 002°39'0 0.0
2017-Sep-06 12:59N 51°25' E 002°39'0 0.0
2017-Sep-06 12:29N 51°25' E 002°39'0 0.0
2017-Sep-06 11:59N 51°25' E 002°39'0 0.0
2017-Sep-06 11:29N 51°25' E 002°39'0 0.1
2017-Sep-06 10:59N 51°24' E 002°39'0 0.0
2017-Sep-06 10:29N 51°24' E 002°39'0 0.1
2017-Sep-06 09:59N 51°24' E 002°39'0 0.0
2017-Sep-06 09:29N 51°24' E 002°39'0 0.0
2017-Sep-06 08:59N 51°24' E 002°39'0 0.0
2017-Sep-06 08:29N 51°24' E 002°39'0 0.0
2017-Sep-06 07:59N 51°24' E 002°39'0 0.0
2017-Sep-06 07:29N 51°24' E 002°39'0 0.0
2017-Sep-06 06:59N 51°24' E 002°39'0 0.0
2017-Sep-06 06:29N 51°24' E 002°39'0 0.0
2017-Sep-06 05:59N 51°24' E 002°39'0 0.0
2017-Sep-06 05:29N 51°24' E 002°39'0 0.1
2017-Sep-06 04:59N 51°24' E 002°39'0 0.1
2017-Sep-06 04:29N 51°24' E 002°39'0 0.1
2017-Sep-06 03:59N 51°25' E 002°39'0 0.0
2017-Sep-06 03:29N 51°25' E 002°39'0 0.0
2017-Sep-06 02:59N 51°25' E 002°39'0 0.0
2017-Sep-06 02:29N 51°25' E 002°39'0 0.0
2017-Sep-06 01:59N 51°25' E 002°39'0 0.0
2017-Sep-06 01:29N 51°25' E 002°39'0 0.0
2017-Sep-06 00:59N 51°25' E 002°39'0 0.2
2017-Sep-06 00:29N 51°25' E 002°39'0 0.0
2017-Sep-05 23:59N 51°25' E 002°39'0 0.0
2017-Sep-05 23:29N 51°25' E 002°39'0 0.0
2017-Sep-05 22:59N 51°25' E 002°39'0 0.0
2017-Sep-05 22:29N 51°25' E 002°39'0 0.0
2017-Sep-05 21:59N 51°25' E 002°39'0 0.4
2017-Sep-05 21:29N 51°25' E 002°39'0 0.1
2017-Sep-05 20:59N 51°25' E 002°39'0 0.2
2017-Sep-05 20:29N 51°25' E 002°39'0 0.0
2017-Sep-05 19:59N 51°25' E 002°39'0 0.0
2017-Sep-05 19:29N 51°25' E 002°39'0 0.1
2017-Sep-05 18:59N 51°25' E 002°39'0 0.2
2017-Sep-05 18:29N 51°25' E 002°39'0 0.1
2017-Sep-05 17:59N 51°25' E 002°39'0 0.0
2017-Sep-05 17:29N 51°25' E 002°39'0 0.0
2017-Sep-05 16:59N 51°25' E 002°39'0 0.1
2017-Sep-05 16:29N 51°25' E 002°39'0 0.1
2017-Sep-05 15:59N 51°25' E 002°39'0 0.1
2017-Sep-05 15:29N 51°25' E 002°39'0 0.1
2017-Sep-05 14:59N 51°25' E 002°39'0 0.1
2017-Sep-05 14:29N 51°25' E 002°39'0 0.1
2017-Sep-05 13:59N 51°25' E 002°39'0 0.0
2017-Sep-05 13:29N 51°25' E 002°39'0 0.0
2017-Sep-05 12:59N 51°25' E 002°39'0 0.0
2017-Sep-05 12:29N 51°25' E 002°39'0 0.0
2017-Sep-05 11:59N 51°25' E 002°39'0 0.0
2017-Sep-05 11:29N 51°25' E 002°39'0 0.0
2017-Sep-05 10:59N 51°25' E 002°39'0 0.0
2017-Sep-05 10:29N 51°25' E 002°39'0 0.3
2017-Sep-05 09:59N 51°25' E 002°39'0 0.3
2017-Sep-05 09:29N 51°25' E 002°39'0 0.1
2017-Sep-05 08:59N 51°25' E 002°39'0 0.0
2017-Sep-05 08:29N 51°25' E 002°39'0 0.0
2017-Sep-05 07:59N 51°25' E 002°39'0 0.0
2017-Sep-05 07:29N 51°24' E 002°39'0 0.0
2017-Sep-05 06:59N 51°25' E 002°39'0 0.1
2017-Sep-05 06:29N 51°25' E 002°39'0 0.3
2017-Sep-05 05:59N 51°25' E 002°39'0 0.2
2017-Sep-05 05:29N 51°25' E 002°39'0 0.0
2017-Sep-05 04:59N 51°25' E 002°39'0 0.0
2017-Sep-05 04:29N 51°25' E 002°39'0 0.0
2017-Sep-05 03:59N 51°25' E 002°39'0 0.1
2017-Sep-05 03:29N 51°25' E 002°39'0 0.0
2017-Sep-05 02:59N 51°25' E 002°39'0 0.0
2017-Sep-05 02:29N 51°25' E 002°39'0 0.0
2017-Sep-05 01:59N 51°25' E 002°39'0 0.1
2017-Sep-05 01:29N 51°25' E 002°39'0 0.1
2017-Sep-05 00:59N 51°25' E 002°39'0 0.1
2017-Sep-05 00:29N 51°25' E 002°39'0 0.0
2017-Sep-04 23:59N 51°25' E 002°39'0 0.1
2017-Sep-04 23:29N 51°25' E 002°39'1 1.2
2017-Sep-04 23:00N 51°24' E 002°40'2 3.4
2017-Sep-04 22:30N 51°23' E 002°42'4 8.8
2017-Sep-04 22:00N 51°22' E 002°49'611.7
2017-Sep-04 21:30N 51°23' E 002°58'611.9
2017-Sep-04 21:00N 51°24' E 003°07'612.6
2017-Sep-04 20:30N 51°25' E 003°17'612.9
2017-Sep-04 20:00N 51°25' E 003°28'510.8
2017-Sep-04 19:30N 51°26' E 003°36'4 9.0
2017-Sep-04 19:00N 51°24' E 003°43'510.7
2017-Sep-04 18:31N 51°20' E 003°49'1 1.3
2017-Sep-04 18:01N 51°20' E 003°49'0 0.6
2017-Sep-04 17:30N 51°19' E 003°49'1 2.2
2017-Sep-04 17:01N 51°18' E 003°50'3 5.6
2017-Sep-04 16:30N 51°16' E 003°50'3 6.8
2017-Sep-04 16:01N 51°12' E 003°48'2 3.9
2017-Sep-04 15:30N 51°10' E 003°48'1 1.3
2017-Sep-04 15:00N 51°10' E 003°47'1 1.4
2017-Sep-04 14:27N 51°10' E 003°48'0 0.0
2017-Sep-04 14:00N 51°10' E 003°48'0 0.0
2017-Sep-04 13:30N 51°10' E 003°48'0 0.0
2017-Sep-04 13:00N 51°10' E 003°48'0 0.0
2017-Sep-04 12:27N 51°10' E 003°48'0 0.0
2017-Sep-04 12:00N 51°10' E 003°48'0 0.0
2017-Sep-04 11:30N 51°10' E 003°48'0 0.0
2017-Sep-04 11:00N 51°10' E 003°48'0 0.0
2017-Sep-04 10:30N 51°10' E 003°48'0 0.0
2017-Sep-04 10:00N 51°10' E 003°48'0 0.0
2017-Sep-04 09:30N 51°10' E 003°48'0 0.0
2017-Sep-04 08:57N 51°10' E 003°48'0 0.0
2017-Sep-04 08:30N 51°10' E 003°48'0 0.0
2017-Sep-04 07:57N 51°10' E 003°48'0 0.0
2017-Sep-04 07:27N 51°10' E 003°48'0 0.0
2017-Sep-04 07:00N 51°10' E 003°48'0 0.0
2017-Sep-04 06:30N 51°10' E 003°48'0 0.0
2017-Sep-04 06:00N 51°10' E 003°48'0 0.0
2017-Sep-04 05:30N 51°10' E 003°48'0 0.0
2017-Sep-04 05:00N 51°10' E 003°48'0 0.0
2017-Sep-04 04:30N 51°10' E 003°48'0 0.0
2017-Sep-04 04:00N 51°10' E 003°48'0 0.0
2017-Sep-04 03:30N 51°10' E 003°48'0 0.0
2017-Sep-04 02:57N 51°10' E 003°48'0 0.0
2017-Sep-04 02:30N 51°10' E 003°48'0 0.0
2017-Sep-04 02:00N 51°10' E 003°48'0 0.0
2017-Sep-04 01:24N 51°10' E 003°48'0 0.0
2017-Sep-04 01:00N 51°10' E 003°48'0 0.0
2017-Sep-04 00:30N 51°10' E 003°48'0 0.0
2017-Sep-04 00:00N 51°10' E 003°48'0 0.0
2017-Sep-03 23:30N 51°10' E 003°48'0 0.0
2017-Sep-03 23:00N 51°10' E 003°48'0 0.0
2017-Sep-03 22:30N 51°10' E 003°48'0 0.0
2017-Sep-03 22:00N 51°10' E 003°48'0 0.0
2017-Sep-03 21:30N 51°10' E 003°48'0 0.0
2017-Sep-03 21:00N 51°10' E 003°48'0 0.0
2017-Sep-03 20:24N 51°10' E 003°48'0 0.0
2017-Sep-03 20:00N 51°10' E 003°48'0 0.0
2017-Sep-03 19:27N 51°10' E 003°48'0 0.0
2017-Sep-03 19:00N 51°10' E 003°48'0 0.0
2017-Sep-03 18:30N 51°10' E 003°48'0 0.0
2017-Sep-03 18:00N 51°10' E 003°48'0 0.0
2017-Sep-03 17:30N 51°10' E 003°48'0 0.0
2017-Sep-03 16:57N 51°10' E 003°48'0 0.0
2017-Sep-03 16:30N 51°10' E 003°48'0 0.0
2017-Sep-03 15:57N 51°10' E 003°48'0 0.0
2017-Sep-03 15:30N 51°10' E 003°48'0 0.0
2017-Sep-03 15:00N 51°10' E 003°48'0 0.0
2017-Sep-03 13:57N 51°10' E 003°48'0 0.0
2017-Sep-03 13:30N 51°10' E 003°48'0 0.0
2017-Sep-03 12:57N 51°10' E 003°48'0 0.0
2017-Sep-03 12:27N 51°10' E 003°48'0 0.0
2017-Sep-03 11:57N 51°10' E 003°48'0 0.0
2017-Sep-03 11:30N 51°10' E 003°48'0 0.0
2017-Sep-03 10:57N 51°10' E 003°48'0 0.0
2017-Sep-03 10:30N 51°10' E 003°48'0 0.0
2017-Sep-03 09:57N 51°10' E 003°48'0 0.0
2017-Sep-03 09:30N 51°10' E 003°48'0 0.0
2017-Sep-03 09:00N 51°10' E 003°48'0 0.0
2017-Sep-03 08:30N 51°10' E 003°48'0 0.0
2017-Sep-03 08:00N 51°10' E 003°48'0 0.0
2017-Sep-03 07:30N 51°10' E 003°48'0 0.0
2017-Sep-03 07:00N 51°10' E 003°48'0 0.0
2017-Sep-03 06:30N 51°10' E 003°48'0 0.0
2017-Sep-03 06:00N 51°10' E 003°48'0 0.0
2017-Sep-03 05:30N 51°10' E 003°48'0 0.0
2017-Sep-03 05:00N 51°10' E 003°48'0 0.0
2017-Sep-03 04:30N 51°10' E 003°48'0 0.0
2017-Sep-03 04:00N 51°10' E 003°48'0 0.0
2017-Sep-03 03:30N 51°10' E 003°48'0 0.0
2017-Sep-03 02:57N 51°10' E 003°48'0 0.0
2017-Sep-03 02:30N 51°10' E 003°48'0 0.0
2017-Sep-03 02:00N 51°10' E 003°48'0 0.0
2017-Sep-03 01:30N 51°10' E 003°48'0 0.0
2017-Sep-03 01:00N 51°10' E 003°48'0 0.0
2017-Sep-03 00:30N 51°10' E 003°48'0 0.0
2017-Sep-03 00:00N 51°10' E 003°48'0 0.0
2017-Sep-02 23:30N 51°10' E 003°48'0 0.0
2017-Sep-02 23:00N 51°10' E 003°48'0 0.0
2017-Sep-02 22:30N 51°10' E 003°48'0 0.0
2017-Sep-02 22:00N 51°10' E 003°48'  
Track history (hours):
 
Tides and Currents Weather Stations Pressure Air Temp Water Temp Dewpoint Dewpoint Depression Visibility Wind Speed Wind Dir Waves Ship Positions

Yutai Ambitions

Last reported at 2017-Sep-12 21:41 UTC. Time now 2017-Sep-23 07:43 UTC.
Position N 60°35' E 019°04'.
Warning: this ship's position is 10 days out of date.

Length 225 m; draft 7 m.

Type: Ship. MMSI: 477136300.

Date/timePositionNaut miles runAvg speedWind from/ knotsBaromVisibWave heightAir tempDewpointWater temp
2017-Sep-12 21:41N 60°35' E 019°04'313.3
2017-Sep-12 21:29N 60°32' E 019°03'713.2
2017-Sep-12 20:59N 60°26' E 019°02'713.2
2017-Sep-12 20:29N 60°19' E 019°01'612.7
2017-Sep-12 20:00N 60°13' E 019°02'713.0
2017-Sep-12 19:30N 60°08' E 019°10'713.0
2017-Sep-12 19:00N 60°03' E 019°19'713.1
2017-Sep-12 18:30N 59°59' E 019°29'613.0
2017-Sep-12 18:00N 59°54' E 019°37'713.0
2017-Sep-12 17:30N 59°48' E 019°43'1112.4
2017-Sep-12 16:39N 59°39' E 019°55'22812.5
2017-Sep-11 22:22N 56°10' E 017°03'513.3
2017-Sep-11 22:00N 56°07' E 016°56'713.2
2017-Sep-11 21:31N 56°04' E 016°46'713.2
2017-Sep-11 21:00N 55°60' E 016°36'713.1
2017-Sep-11 20:31N 55°56' E 016°26'713.0
2017-Sep-11 20:01N 55°52' E 016°17'612.8
2017-Sep-11 19:30N 55°49' E 016°07'612.7
2017-Sep-11 19:01N 55°45' E 015°58'612.9
2017-Sep-11 18:31N 55°42' E 015°49'713.1
2017-Sep-11 18:01N 55°39' E 015°38'713.1
2017-Sep-11 17:31N 55°37' E 015°27'713.1
2017-Sep-11 17:00N 55°34' E 015°17'713.1
2017-Sep-11 16:30N 55°31' E 015°06'713.3
2017-Sep-11 16:00N 55°29' E 014°55'713.4
2017-Sep-11 15:30N 55°26' E 014°44'713.5
2017-Sep-11 15:00N 55°21' E 014°36'713.2
2017-Sep-11 14:30N 55°16' E 014°28'612.8
2017-Sep-11 14:00N 55°12' E 014°20'713.1
2017-Sep-11 13:30N 55°10' E 014°09'713.2
2017-Sep-11 13:00N 55°11' E 013°58'612.9
2017-Sep-11 12:30N 55°11' E 013°46'612.8
2017-Sep-11 12:00N 55°11' E 013°35'612.9
2017-Sep-11 11:30N 55°12' E 013°24'612.9
2017-Sep-11 11:01N 55°13' E 013°13'713.1
2017-Sep-11 10:30N 55°14' E 013°01'612.8
2017-Sep-11 10:00N 55°15' E 012°50'612.7
2017-Sep-11 09:31N 55°17' E 012°40'5 9.2
2017-Sep-11 09:00N 55°22' E 012°39'611.6
2017-Sep-11 08:31N 55°27' E 012°41'4 8.2
2017-Sep-11 08:01N 55°31' E 012°44'5 9.0
2017-Sep-11 07:30N 55°34' E 012°49'5 9.5
2017-Sep-11 07:01N 55°38' E 012°55'5 9.7
2017-Sep-11 06:31N 55°43' E 012°53'611.4
2017-Sep-11 06:00N 55°48' E 012°48'510.9
2017-Sep-11 05:31N 55°53' E 012°44'611.2
2017-Sep-11 05:00N 55°58' E 012°42'510.6
2017-Sep-11 04:31N 56°03' E 012°38'5 9.1
2017-Sep-11 04:01N 56°06' E 012°33'5 9.1
2017-Sep-11 03:30N 56°09' E 012°26'611.3
2017-Sep-11 03:01N 56°12' E 012°18'612.1
2017-Sep-11 02:31N 56°15' E 012°08'4711.2
2017-Sep-10 22:18N 57°00' E 011°43'511.9
2017-Sep-10 21:53N 57°05' E 011°39'511.6
2017-Sep-10 21:28N 57°09' E 011°37'511.5
2017-Sep-10 21:00N 57°14' E 011°33'611.5
2017-Sep-10 20:30N 57°20' E 011°30'611.7
2017-Sep-10 20:00N 57°25' E 011°27'611.6
2017-Sep-10 19:31N 57°30' E 011°21'612.6
2017-Sep-10 19:01N 57°34' E 011°11'713.1
2017-Sep-10 18:30N 57°36' E 010°59'613.1
2017-Sep-10 18:01N 57°38' E 010°48'4 8.1
2017-Sep-10 17:30N 57°39' E 010°41'0 0.1
2017-Sep-10 16:37N 57°40' E 010°40'0 0.0
2017-Sep-10 16:13N 57°40' E 010°41'0 0.0
2017-Sep-10 15:49N 57°40' E 010°41'0 0.0
2017-Sep-10 15:28N 57°40' E 010°41'0 0.0
2017-Sep-10 15:00N 57°40' E 010°41'0 0.0
2017-Sep-10 13:57N 57°40' E 010°41'0 0.4
2017-Sep-10 13:30N 57°40' E 010°40'2 3.9
2017-Sep-10 13:00N 57°41' E 010°42'4 8.3
2017-Sep-10 12:30N 57°44' E 010°48'4 7.4
2017-Sep-10 11:59N 57°48' E 010°47'714.5
2017-Sep-10 11:30N 57°49' E 010°34'714.4
2017-Sep-10 11:00N 57°48' E 010°21'37412.9
2017-Sep-09 06:07N 52°59' E 003°24'214.1
2017-Sep-09 06:00N 52°58' E 003°23'714.2
2017-Sep-09 05:29N 52°51' E 003°17'714.3
2017-Sep-09 04:59N 52°45' E 003°11'714.5
2017-Sep-09 04:30N 52°39' E 003°06'714.7
2017-Sep-09 03:59N 52°32' E 002°60'714.6
2017-Sep-09 03:29N 52°26' E 002°54'714.5
2017-Sep-09 03:00N 52°20' E 002°48'714.3
2017-Sep-09 02:29N 52°13' E 002°43'713.9
2017-Sep-09 02:00N 52°07' E 002°40'713.5
2017-Sep-09 01:29N 51°60' E 002°37'912.6
2017-Sep-09 00:45N 51°51' E 002°37'312.4
2017-Sep-09 00:30N 51°47' E 002°37'611.7
2017-Sep-09 00:00N 51°42' E 002°41'510.8
2017-Sep-08 23:30N 51°37' E 002°44'610.9
2017-Sep-08 23:00N 51°32' E 002°42'4 9.0
2017-Sep-08 22:30N 51°27' E 002°42'3 5.8
2017-Sep-08 21:59N 51°24' E 002°39'0 0.1
2017-Sep-08 21:29N 51°25' E 002°39'0 0.1
2017-Sep-08 20:59N 51°25' E 002°39'0 0.1
2017-Sep-08 20:29N 51°25' E 002°39'0 0.1
2017-Sep-08 19:59N 51°25' E 002°39'0 0.1
2017-Sep-08 19:29N 51°25' E 002°39'0 0.1
2017-Sep-08 18:59N 51°25' E 002°39'0 0.1
2017-Sep-08 18:29N 51°25' E 002°39'0 0.0
2017-Sep-08 17:59N 51°25' E 002°39'0 0.0
2017-Sep-08 17:29N 51°25' E 002°39'0 0.0
2017-Sep-08 16:59N 51°25' E 002°39'0 0.0
2017-Sep-08 16:29N 51°25' E 002°39'0 0.1
2017-Sep-08 15:59N 51°25' E 002°39'0 0.1
2017-Sep-08 15:29N 51°25' E 002°39'0 0.1
2017-Sep-08 14:59N 51°25' E 002°39'0 0.0
2017-Sep-08 14:29N 51°25' E 002°39'0 0.2
2017-Sep-08 13:59N 51°25' E 002°39'0 0.1
2017-Sep-08 13:29N 51°25' E 002°39'0 0.1
2017-Sep-08 12:59N 51°25' E 002°39'0 0.0
2017-Sep-08 12:29N 51°25' E 002°39'0 0.1
2017-Sep-08 11:59N 51°25' E 002°39'0 0.0
2017-Sep-08 11:29N 51°25' E 002°39'0 0.1
2017-Sep-08 10:59N 51°25' E 002°39'0 0.0
2017-Sep-08 10:29N 51°25' E 002°39'0 0.0
2017-Sep-08 09:59N 51°25' E 002°39'0 0.0
2017-Sep-08 09:29N 51°25' E 002°39'0 0.0
2017-Sep-08 08:59N 51°25' E 002°39'0 0.0
2017-Sep-08 08:29N 51°25' E 002°39'0 0.0
2017-Sep-08 07:59N 51°25' E 002°39'0 0.1
2017-Sep-08 07:29N 51°25' E 002°39'0 0.1
2017-Sep-08 06:59N 51°25' E 002°39'0 0.1
2017-Sep-08 06:29N 51°25' E 002°39'0 0.1
2017-Sep-08 05:59N 51°25' E 002°39'0 0.0
2017-Sep-08 05:29N 51°25' E 002°39'0 0.1
2017-Sep-08 04:59N 51°25' E 002°39'0 0.0
2017-Sep-08 04:29N 51°25' E 002°39'0 0.0
2017-Sep-08 03:59N 51°25' E 002°39'0 0.1
2017-Sep-08 03:29N 51°25' E 002°39'0 0.0
2017-Sep-08 02:59N 51°25' E 002°39'0 0.1
2017-Sep-08 02:29N 51°25' E 002°39'0 0.2
2017-Sep-08 01:59N 51°25' E 002°39'0 0.1
2017-Sep-08 01:29N 51°25' E 002°39'0 0.1
2017-Sep-08 00:59N 51°25' E 002°39'0 0.1
2017-Sep-08 00:29N 51°25' E 002°39'0 0.1
2017-Sep-07 23:59N 51°25' E 002°39'0 0.0
2017-Sep-07 23:26N 51°25' E 002°39'0 0.0
2017-Sep-07 22:59N 51°25' E 002°39'0 0.0
2017-Sep-07 22:29N 51°25' E 002°39'0 0.0
2017-Sep-07 21:59N 51°25' E 002°39'0 0.0
2017-Sep-07 21:29N 51°25' E 002°39'0 0.0
2017-Sep-07 20:59N 51°25' E 002°39'0 0.0
2017-Sep-07 20:29N 51°25' E 002°39'0 0.1
2017-Sep-07 19:59N 51°25' E 002°39'0 0.0
2017-Sep-07 19:29N 51°25' E 002°39'0 0.1
2017-Sep-07 18:59N 51°25' E 002°39'0 0.0
2017-Sep-07 18:29N 51°25' E 002°39'0 0.1
2017-Sep-07 17:59N 51°25' E 002°39'0 0.2
2017-Sep-07 17:29N 51°25' E 002°39'0 0.2
2017-Sep-07 16:59N 51°25' E 002°39'0 0.2
2017-Sep-07 16:29N 51°25' E 002°39'0 0.1
2017-Sep-07 15:59N 51°25' E 002°39'0 0.0
2017-Sep-07 15:29N 51°25' E 002°39'0 0.0
2017-Sep-07 14:59N 51°25' E 002°39'0 0.0
2017-Sep-07 14:29N 51°25' E 002°39'0 0.0
2017-Sep-07 13:59N 51°25' E 002°39'0 0.1
2017-Sep-07 13:29N 51°25' E 002°39'0 0.0
2017-Sep-07 12:59N 51°25' E 002°39'0 0.0
2017-Sep-07 12:29N 51°25' E 002°39'0 0.0
2017-Sep-07 11:59N 51°25' E 002°39'0 0.1
2017-Sep-07 11:29N 51°25' E 002°39'0 0.1
2017-Sep-07 10:59N 51°24' E 002°39'0 0.2
2017-Sep-07 10:29N 51°24' E 002°39'0 0.2
2017-Sep-07 09:59N 51°24' E 002°39'0 0.0
2017-Sep-07 09:29N 51°24' E 002°39'0 0.0
2017-Sep-07 08:59N 51°24' E 002°39'0 0.0
2017-Sep-07 08:29N 51°24' E 002°39'0 0.0
2017-Sep-07 07:59N 51°24' E 002°39'0 0.0
2017-Sep-07 07:29N 51°24' E 002°39'0 0.0
2017-Sep-07 06:59N 51°24' E 002°39'0 0.1
2017-Sep-07 06:29N 51°24' E 002°39'0 0.2
2017-Sep-07 05:59N 51°24' E 002°39'0 0.3
2017-Sep-07 05:29N 51°25' E 002°39'0 0.1
2017-Sep-07 04:59N 51°25' E 002°39'0 0.1
2017-Sep-07 04:29N 51°25' E 002°39'0 0.0
2017-Sep-07 03:59N 51°25' E 002°39'0 0.0
2017-Sep-07 03:29N 51°25' E 002°39'0 0.0
2017-Sep-07 02:59N 51°25' E 002°39'0 0.0
2017-Sep-07 02:26N 51°25' E 002°39'0 0.0
2017-Sep-07 01:59N 51°25' E 002°39'0 0.1
2017-Sep-07 01:29N 51°25' E 002°39'0 0.0
2017-Sep-07 00:59N 51°25' E 002°39'0 0.0
2017-Sep-07 00:29N 51°25' E 002°39'0 0.0
2017-Sep-06 23:59N 51°25' E 002°39'0 0.1
2017-Sep-06 23:29N 51°25' E 002°39'0 0.1
2017-Sep-06 22:59N 51°24' E 002°39'0 0.1
2017-Sep-06 22:29N 51°24' E 002°39'0 0.1
2017-Sep-06 21:59N 51°24' E 002°39'0 0.0
2017-Sep-06 21:29N 51°24' E 002°39'0 0.0
2017-Sep-06 20:59N 51°24' E 002°39'0 0.0
2017-Sep-06 20:29N 51°24' E 002°39'0 0.0
2017-Sep-06 19:59N 51°24' E 002°39'0 0.0
2017-Sep-06 19:29N 51°24' E 002°39'0 0.1
2017-Sep-06 18:59N 51°24' E 002°39'0 0.1
2017-Sep-06 18:29N 51°24' E 002°39'0 0.1
2017-Sep-06 17:59N 51°24' E 002°39'0 0.0
2017-Sep-06 17:29N 51°24' E 002°39'0 0.0
2017-Sep-06 16:59N 51°24' E 002°39'0 0.1
2017-Sep-06 16:29N 51°25' E 002°39'0 0.1
2017-Sep-06 15:59N 51°25' E 002°39'0 0.0
2017-Sep-06 15:29N 51°25' E 002°39'0 0.0
2017-Sep-06 14:56N 51°25' E 002°39'0 0.0
2017-Sep-06 14:29N 51°25' E 002°39'0 0.0
2017-Sep-06 13:59N 51°25' E 002°39'0 0.0
2017-Sep-06 13:29N 51°25' E 002°39'0 0.0
2017-Sep-06 12:59N 51°25' E 002°39'0 0.0
2017-Sep-06 12:29N 51°25' E 002°39'0 0.0
2017-Sep-06 11:59N 51°25' E 002°39'0 0.0
2017-Sep-06 11:29N 51°25' E 002°39'0 0.1
2017-Sep-06 10:59N 51°24' E 002°39'0 0.0
2017-Sep-06 10:29N 51°24' E 002°39'0 0.1
2017-Sep-06 09:59N 51°24' E 002°39'0 0.0
2017-Sep-06 09:29N 51°24' E 002°39'0 0.0
2017-Sep-06 08:59N 51°24' E 002°39'0 0.0
2017-Sep-06 08:29N 51°24' E 002°39'0 0.0
2017-Sep-06 07:59N 51°24' E 002°39'0 0.0
2017-Sep-06 07:29N 51°24' E 002°39'0 0.0
2017-Sep-06 06:59N 51°24' E 002°39'0 0.0
2017-Sep-06 06:29N 51°24' E 002°39'0 0.0
2017-Sep-06 05:59N 51°24' E 002°39'0 0.0
2017-Sep-06 05:29N 51°24' E 002°39'0 0.1
2017-Sep-06 04:59N 51°24' E 002°39'0 0.1
2017-Sep-06 04:29N 51°24' E 002°39'0 0.1
2017-Sep-06 03:59N 51°25' E 002°39'0 0.0
2017-Sep-06 03:29N 51°25' E 002°39'0 0.0
2017-Sep-06 02:59N 51°25' E 002°39'0 0.0
2017-Sep-06 02:29N 51°25' E 002°39'0 0.0
2017-Sep-06 01:59N 51°25' E 002°39'0 0.0
2017-Sep-06 01:29N 51°25' E 002°39'0 0.0
2017-Sep-06 00:59N 51°25' E 002°39'0 0.2
2017-Sep-06 00:29N 51°25' E 002°39'0 0.0
2017-Sep-05 23:59N 51°25' E 002°39'0 0.0
2017-Sep-05 23:29N 51°25' E 002°39'0 0.0
2017-Sep-05 22:59N 51°25' E 002°39'0 0.0
2017-Sep-05 22:29N 51°25' E 002°39'0 0.0
2017-Sep-05 21:59N 51°25' E 002°39'0 0.4
2017-Sep-05 21:29N 51°25' E 002°39'0 0.1
2017-Sep-05 20:59N 51°25' E 002°39'0 0.2
2017-Sep-05 20:29N 51°25' E 002°39'0 0.0
2017-Sep-05 19:59N 51°25' E 002°39'0 0.0
2017-Sep-05 19:29N 51°25' E 002°39'0 0.1
2017-Sep-05 18:59N 51°25' E 002°39'0 0.2
2017-Sep-05 18:29N 51°25' E 002°39'0 0.1
2017-Sep-05 17:59N 51°25' E 002°39'0 0.0
2017-Sep-05 17:29N 51°25' E 002°39'0 0.0
2017-Sep-05 16:59N 51°25' E 002°39'0 0.1
2017-Sep-05 16:29N 51°25' E 002°39'0 0.1
2017-Sep-05 15:59N 51°25' E 002°39'0 0.1
2017-Sep-05 15:29N 51°25' E 002°39'0 0.1
2017-Sep-05 14:59N 51°25' E 002°39'0 0.1
2017-Sep-05 14:29N 51°25' E 002°39'0 0.1
2017-Sep-05 13:59N 51°25' E 002°39'0 0.0
2017-Sep-05 13:29N 51°25' E 002°39'0 0.0
2017-Sep-05 12:59N 51°25' E 002°39'0 0.0
2017-Sep-05 12:29N 51°25' E 002°39'0 0.0
2017-Sep-05 11:59N 51°25' E 002°39'0 0.0
2017-Sep-05 11:29N 51°25' E 002°39'0 0.0
2017-Sep-05 10:59N 51°25' E 002°39'0 0.0
2017-Sep-05 10:29N 51°25' E 002°39'0 0.3
2017-Sep-05 09:59N 51°25' E 002°39'0 0.3
2017-Sep-05 09:29N 51°25' E 002°39'0 0.1
2017-Sep-05 08:59N 51°25' E 002°39'0 0.0
2017-Sep-05 08:29N 51°25' E 002°39'0 0.0
2017-Sep-05 07:59N 51°25' E 002°39'0 0.0
2017-Sep-05 07:29N 51°24' E 002°39'0 0.0
2017-Sep-05 06:59N 51°25' E 002°39'0 0.1
2017-Sep-05 06:29N 51°25' E 002°39'0 0.3
2017-Sep-05 05:59N 51°25' E 002°39'0 0.2
2017-Sep-05 05:29N 51°25' E 002°39'0 0.0
2017-Sep-05 04:59N 51°25' E 002°39'0 0.0
2017-Sep-05 04:29N 51°25' E 002°39'0 0.0
2017-Sep-05 03:59N 51°25' E 002°39'0 0.1
2017-Sep-05 03:29N 51°25' E 002°39'0 0.0
2017-Sep-05 02:59N 51°25' E 002°39'0 0.0
2017-Sep-05 02:29N 51°25' E 002°39'0 0.0
2017-Sep-05 01:59N 51°25' E 002°39'0 0.1
2017-Sep-05 01:29N 51°25' E 002°39'0 0.1
2017-Sep-05 00:59N 51°25' E 002°39'0 0.1
2017-Sep-05 00:29N 51°25' E 002°39'0 0.0
2017-Sep-04 23:59N 51°25' E 002°39'0 0.1
2017-Sep-04 23:29N 51°25' E 002°39'1 1.2
2017-Sep-04 23:00N 51°24' E 002°40'2 3.4
2017-Sep-04 22:30N 51°23' E 002°42'4 8.8
2017-Sep-04 22:00N 51°22' E 002°49'611.7
2017-Sep-04 21:30N 51°23' E 002°58'611.9
2017-Sep-04 21:00N 51°24' E 003°07'612.6
2017-Sep-04 20:30N 51°25' E 003°17'612.9
2017-Sep-04 20:00N 51°25' E 003°28'510.8
2017-Sep-04 19:30N 51°26' E 003°36'4 9.0
2017-Sep-04 19:00N 51°24' E 003°43'510.7
2017-Sep-04 18:31N 51°20' E 003°49'1 1.3
2017-Sep-04 18:01N 51°20' E 003°49'0 0.6
2017-Sep-04 17:30N 51°19' E 003°49'1 2.2
2017-Sep-04 17:01N 51°18' E 003°50'3 5.6
2017-Sep-04 16:30N 51°16' E 003°50'3 6.8
2017-Sep-04 16:01N 51°12' E 003°48'2 3.9
2017-Sep-04 15:30N 51°10' E 003°48'1 1.3
2017-Sep-04 15:00N 51°10' E 003°47'1 1.4
2017-Sep-04 14:27N 51°10' E 003°48'0 0.0
2017-Sep-04 14:00N 51°10' E 003°48'0 0.0
2017-Sep-04 13:30N 51°10' E 003°48'0 0.0
2017-Sep-04 13:00N 51°10' E 003°48'0 0.0
2017-Sep-04 12:27N 51°10' E 003°48'0 0.0
2017-Sep-04 12:00N 51°10' E 003°48'0 0.0
2017-Sep-04 11:30N 51°10' E 003°48'0 0.0
2017-Sep-04 11:00N 51°10' E 003°48'0 0.0
2017-Sep-04 10:30N 51°10' E 003°48'0 0.0
2017-Sep-04 10:00N 51°10' E 003°48'0 0.0
2017-Sep-04 09:30N 51°10' E 003°48'0 0.0
2017-Sep-04 08:57N 51°10' E 003°48'0 0.0
2017-Sep-04 08:30N 51°10' E 003°48'0 0.0
2017-Sep-04 07:57N 51°10' E 003°48'0 0.0
2017-Sep-04 07:27N 51°10' E 003°48'0 0.0
2017-Sep-04 07:00N 51°10' E 003°48'0 0.0
2017-Sep-04 06:30N 51°10' E 003°48'0 0.0
2017-Sep-04 06:00N 51°10' E 003°48'0 0.0
2017-Sep-04 05:30N 51°10' E 003°48'0 0.0
2017-Sep-04 05:00N 51°10' E 003°48'0 0.0
2017-Sep-04 04:30N 51°10' E 003°48'0 0.0
2017-Sep-04 04:00N 51°10' E 003°48'0 0.0
2017-Sep-04 03:30N 51°10' E 003°48'0 0.0
2017-Sep-04 02:57N 51°10' E 003°48'0 0.0
2017-Sep-04 02:30N 51°10' E 003°48'0 0.0
2017-Sep-04 02:00N 51°10' E 003°48'0 0.0
2017-Sep-04 01:24N 51°10' E 003°48'0 0.0
2017-Sep-04 01:00N 51°10' E 003°48'0 0.0
2017-Sep-04 00:30N 51°10' E 003°48'0 0.0
2017-Sep-04 00:00N 51°10' E 003°48'0 0.0
2017-Sep-03 23:30N 51°10' E 003°48'0 0.0
2017-Sep-03 23:00N 51°10' E 003°48'0 0.0
2017-Sep-03 22:30N 51°10' E 003°48'0 0.0
2017-Sep-03 22:00N 51°10' E 003°48'0 0.0
2017-Sep-03 21:30N 51°10' E 003°48'0 0.0
2017-Sep-03 21:00N 51°10' E 003°48'0 0.0
2017-Sep-03 20:24N 51°10' E 003°48'0 0.0
2017-Sep-03 20:00N 51°10' E 003°48'0 0.0
2017-Sep-03 19:27N 51°10' E 003°48'0 0.0
2017-Sep-03 19:00N 51°10' E 003°48'0 0.0
2017-Sep-03 18:30N 51°10' E 003°48'0 0.0
2017-Sep-03 18:00N 51°10' E 003°48'0 0.0
2017-Sep-03 17:30N 51°10' E 003°48'0 0.0
2017-Sep-03 16:57N 51°10' E 003°48'0 0.0
2017-Sep-03 16:30N 51°10' E 003°48'0 0.0
2017-Sep-03 15:57N 51°10' E 003°48'0 0.0
2017-Sep-03 15:30N 51°10' E 003°48'0 0.0
2017-Sep-03 15:00N 51°10' E 003°48'0 0.0
2017-Sep-03 13:57N 51°10' E 003°48'0 0.0
2017-Sep-03 13:30N 51°10' E 003°48'0 0.0
2017-Sep-03 12:57N 51°10' E 003°48'0 0.0
2017-Sep-03 12:27N 51°10' E 003°48'0 0.0
2017-Sep-03 11:57N 51°10' E 003°48'0 0.0
2017-Sep-03 11:30N 51°10' E 003°48'0 0.0
2017-Sep-03 10:57N 51°10' E 003°48'0 0.0
2017-Sep-03 10:30N 51°10' E 003°48'0 0.0
2017-Sep-03 09:57N 51°10' E 003°48'0 0.0
2017-Sep-03 09:30N 51°10' E 003°48'0 0.0
2017-Sep-03 09:00N 51°10' E 003°48'0 0.0
2017-Sep-03 08:30N 51°10' E 003°48'0 0.0
2017-Sep-03 08:00N 51°10' E 003°48'0 0.0
2017-Sep-03 07:30N 51°10' E 003°48'0 0.0
2017-Sep-03 07:00N 51°10' E 003°48'0 0.0
2017-Sep-03 06:30N 51°10' E 003°48'0 0.0
2017-Sep-03 06:00N 51°10' E 003°48'0 0.0
2017-Sep-03 05:30N 51°10' E 003°48'0 0.0
2017-Sep-03 05:00N 51°10' E 003°48'0 0.0
2017-Sep-03 04:30N 51°10' E 003°48'0 0.0
2017-Sep-03 04:00N 51°10' E 003°48'0 0.0
2017-Sep-03 03:30N 51°10' E 003°48'0 0.0
2017-Sep-03 02:57N 51°10' E 003°48'0 0.0
2017-Sep-03 02:30N 51°10' E 003°48'0 0.0
2017-Sep-03 02:00N 51°10' E 003°48'0 0.0
2017-Sep-03 01:30N 51°10' E 003°48'0 0.0
2017-Sep-03 01:00N 51°10' E 003°48'0 0.0
2017-Sep-03 00:30N 51°10' E 003°48'0 0.0
2017-Sep-03 00:00N 51°10' E 003°48'0 0.0
2017-Sep-02 23:30N 51°10' E 003°48'0 0.0
2017-Sep-02 23:00N 51°10' E 003°48'0 0.0
2017-Sep-02 22:30N 51°10' E 003°48'0 0.0
2017-Sep-02 22:00N 51°10' E 003°48'  

Dump ship's entire track history